Аэропорт
Угольный (UHMA)

 UHMA / DYR
ЗЦ Хабаровск
Магадан (UHMM)
Магадан (UHMM)
 64.73490, 177.74100  / 194 ft

 UHMA 310800Z 15003MPS 9999 FEW036 M08/M12 Q1002 R01/////// NOSIG RMK TDZ R01/15003MPS END R01/17004G05MPS QFE747/0997
 TAF UHMA 310151Z 3103/0103 29009G15MPS 5000 BLSN SCT004 BKN020 TEMPO 3103/3108 25013G18MPS 0500 BLSN BECMG 3108/3110 17008G13MPS TEMPO 3110/3118 13010G15MPS 0500 -SN BLSN VV002 BECMG 3118/3120 13010G15MPS TEMPO 3120/0103 0500 -SHSN BLSN VV002
UHMA_j_0220
показать схемы
Название сценария Тип сценария Flight Simulator 9 Flight Simulator X Prepar3D v2 Prepar3D v3 Prepar3D v4 xPlane
UHMA xPlane бесплатный
uhma-scenery-fs9-1003 бесплатный
uhma-scenery-fsx-1308 бесплатный
UHMA_P3D_v.4.4 бесплатный


2020 © VATRUS division (Privacy Policy)